首页
METAR-TAF:

METAR-TAF

机场 :

君士坦丁, 阿尔及利亚

纬度: 36-17N, 经度: 006-37E, 海拔: 694米

当前天气观测

该预报发布于26分钟前的12:00 UTC
风速4节,风向北转西北
温度 28°C
湿度 42%
气压 1018 hPa
能见度10公里或以上
少量云层高于2300英尺
多云层高于20000英尺

METAR: DABC 161200Z 34004KT 9999 FEW023 BKN200 28/14 Q1018

时间: 13:26 (12:26 UTC)

预报

该预报发布于1小时和26分钟前的11:00 UTC
预报有效从16日的 12点(UTC)到 17日的 12点(UTC)
风速14节,风向北转东北
能见度10公里或以上
散云层高于2000英尺
散云层高于20000英尺
几率 40% :
短暂存在
从 16日的 12点(UTC)到 16日的 24点(UTC)
少量云层高于2300英尺, 塔状积云.
散云层高于10000英尺
几率 40% :
短暂存在
从 16日的 13点(UTC)到 16日的 20点(UTC)
能見度: 4000
少量云层高于2000英尺, 积雨云.
多云层高于3000英尺
雷暴, 小雨
成为
从 16日的 20点(UTC)到 16日的 22点(UTC)
风速2节,风向多变
成为
从 17日的 06点(UTC)到 17日的 08点(UTC)
风速12节,风向

TAF: DABC 161100Z 1612/1712 02014KT 9999 SCT020 SCT200 PROB40 TEMPO 1612/1624 FEW023TCU SCT100 PROB40 TEMPO 1613/1620 4000 -TSRA FEW020CB BKN030 BECMG 1620/1622 VRB02KT BECMG 1706/1708 35012KT

超过4000个机场的气象观测和天气预报(METAR&TAF报告)。

可查询的气象台以黄色和红色小点在地图上表示。

将鼠标移到小点上方,可查看气象台名称。

然后点击查看天气观测和预报。

如需切换地图:点击带黑十字的绿色按钮放大地图;点击带横线的绿色按钮缩小地图;或者点击绿色箭头查看邻近地区的地图。


METAR-TAF: